FAHS/HDS METAR and TAF weather

Enter ICAO airport designator
Station Type Date Time Source
FAHS METAR 2021/01/17 19:00 UTC NOAA

FAHS 171900Z AUTO 16008KT //// // ////// 22/22 Q1014


Station Type Date Time Source
FAHS Decoded METAR 2021/01/17 19:00 UTC NOAA

Hoedspruit, South Africa (FAHS) 24-22S 031-02E 500M
Jan 17, 2021 - 02:00 PM EST / 2021.01.17 1900 UTC
Wind: from the SSE (160 degrees) at 9 MPH (8 KT):0
Temperature: 71 F (22 C)
Dew Point: 71 F (22 C)
Relative Humidity: 100%
Pressure (altimeter): 29.94 in. Hg (1014 hPa)
ob: FAHS 171900Z AUTO 16008KT //// // ////// 22/22 Q1014
cycle: 19

Station Type Date Time Source
FAHS TAF 2017/05/23 04:01 UTC NOAA

TAF FAHS 230300Z 2304/2315 VRB02KT CAVOK TX29/2312ZTN12/2304Z

Example: see airport list